sensor_id;sensor_type;location;lat;lon;timestamp;P1;durP1;ratioP1;P2;durP2;ratioP2
8462;SDS011;4268;52.506;13.462;2023-10-19T00:00:45;13.30;;;12.10;;
8462;SDS011;4268;52.506;13.462;2023-10-19T00:03:13;13.37;;;12.07;;
8462;SDS011;4268;52.506;13.462;2023-10-19T00:05:39;13.63;;;12.23;;
8462;SDS011;4268;52.506;13.462;2023-10-19T00:08:06;13.23;;;12.03;;
8462;SDS011;4268;52.506;13.462;2023-10-19T00:10:38;13.13;;;11.93;;
8462;SDS011;4268;52.506;13.462;2023-10-19T00:13:05;13.53;;;12.23;;
8462;SDS011;4268;52.506;13.462;2023-10-19T00:15:33;13.33;;;12.03;;
8462;SDS011;4268;52.506;13.462;2023-10-19T00:18:02;12.73;;;11.60;;
8462;SDS011;4268;52.506;13.462;2023-10-19T00:20:48;14.43;;;13.03;;
8462;SDS011;4268;52.506;13.462;2023-10-19T00:23:21;13.07;;;11.67;;
8462;SDS011;4268;52.506;13.462;2023-10-19T00:25:56;13.30;;;11.93;;
8462;SDS011;4268;52.506;13.462;2023-10-19T00:28:22;12.70;;;11.40;;
8462;SDS011;4268;52.506;13.462;2023-10-19T00:30:48;12.97;;;11.77;;
8462;SDS011;4268;52.506;13.462;2023-10-19T00:33:18;13.13;;;11.83;;
8462;SDS011;4268;52.506;13.462;2023-10-19T00:35:51;13.10;;;11.73;;
8462;SDS011;4268;52.506;13.462;2023-10-19T00:38:25;12.70;;;11.47;;
8462;SDS011;4268;52.506;13.462;2023-10-19T00:40:51;12.87;;;11.67;;
8462;SDS011;4268;52.506;13.462;2023-10-19T00:43:49;13.80;;;12.37;;
8462;SDS011;4268;52.506;13.462;2023-10-19T00:46:22;12.43;;;11.23;;
8462;SDS011;4268;52.506;13.462;2023-10-19T00:48:52;13.50;;;12.03;;
8462;SDS011;4268;52.506;13.462;2023-10-19T00:51:23;13.17;;;11.83;;
8462;SDS011;4268;52.506;13.462;2023-10-19T00:54:17;13.60;;;12.30;;
8462;SDS011;4268;52.506;13.462;2023-10-19T00:56:51;14.73;;;13.23;;
8462;SDS011;4268;52.506;13.462;2023-10-19T00:59:21;14.13;;;12.73;;
8462;SDS011;4268;52.506;13.462;2023-10-19T01:01:50;14.20;;;12.80;;
8462;SDS011;4268;52.506;13.462;2023-10-19T01:04:22;12.77;;;11.47;;
8462;SDS011;4268;52.506;13.462;2023-10-19T01:06:49;14.10;;;12.70;;
8462;SDS011;4268;52.506;13.462;2023-10-19T01:09:36;14.47;;;13.07;;
8462;SDS011;4268;52.506;13.462;2023-10-19T01:12:03;14.40;;;13.00;;
8462;SDS011;4268;52.506;13.462;2023-10-19T01:17:49;13.83;;;12.50;;
8462;SDS011;4268;52.506;13.462;2023-10-19T01:20:23;14.90;;;13.40;;
8462;SDS011;4268;52.506;13.462;2023-10-19T01:25:43;14.43;;;13.13;;
8462;SDS011;4268;52.506;13.462;2023-10-19T01:28:22;14.60;;;13.20;;
8462;SDS011;4268;52.506;13.462;2023-10-19T01:31:11;14.47;;;13.07;;
8462;SDS011;4268;52.506;13.462;2023-10-19T01:33:47;13.70;;;12.40;;
8462;SDS011;4268;52.506;13.462;2023-10-19T01:36:14;14.43;;;12.47;;
8462;SDS011;4268;52.506;13.462;2023-10-19T01:38:49;14.73;;;13.33;;
8462;SDS011;4268;52.506;13.462;2023-10-19T01:41:19;14.70;;;13.20;;
8462;SDS011;4268;52.506;13.462;2023-10-19T01:43:46;14.30;;;12.90;;
8462;SDS011;4268;52.506;13.462;2023-10-19T01:46:14;14.43;;;12.97;;
8462;SDS011;4268;52.506;13.462;2023-10-19T01:48:47;14.60;;;13.20;;
8462;SDS011;4268;52.506;13.462;2023-10-19T01:51:14;14.90;;;13.40;;
8462;SDS011;4268;52.506;13.462;2023-10-19T01:53:41;15.10;;;13.50;;
8462;SDS011;4268;52.506;13.462;2023-10-19T01:56:09;15.70;;;13.97;;
8462;SDS011;4268;52.506;13.462;2023-10-19T01:58:36;16.03;;;14.37;;
8462;SDS011;4268;52.506;13.462;2023-10-19T02:01:02;14.67;;;13.23;;
8462;SDS011;4268;52.506;13.462;2023-10-19T02:03:33;14.70;;;13.27;;
8462;SDS011;4268;52.506;13.462;2023-10-19T02:06:00;14.27;;;12.80;;
8462;SDS011;4268;52.506;13.462;2023-10-19T02:08:46;15.20;;;13.80;;
8462;SDS011;4268;52.506;13.462;2023-10-19T02:11:23;16.40;;;13.70;;
8462;SDS011;4268;52.506;13.462;2023-10-19T02:13:51;15.13;;;13.50;;
8462;SDS011;4268;52.506;13.462;2023-10-19T02:16:19;15.83;;;14.20;;
8462;SDS011;4268;52.506;13.462;2023-10-19T02:18:47;15.00;;;13.40;;
8462;SDS011;4268;52.506;13.462;2023-10-19T02:21:13;15.60;;;14.17;;
8462;SDS011;4268;52.506;13.462;2023-10-19T02:23:39;15.13;;;13.70;;
8462;SDS011;4268;52.506;13.462;2023-10-19T02:26:08;15.33;;;13.93;;
8462;SDS011;4268;52.506;13.462;2023-10-19T02:28:37;15.37;;;13.97;;
8462;SDS011;4268;52.506;13.462;2023-10-19T02:31:03;14.83;;;13.33;;
8462;SDS011;4268;52.506;13.462;2023-10-19T02:33:39;15.70;;;14.10;;
8462;SDS011;4268;52.506;13.462;2023-10-19T02:36:05;15.97;;;14.37;;
8462;SDS011;4268;52.506;13.462;2023-10-19T02:38:37;15.53;;;13.90;;
8462;SDS011;4268;52.506;13.462;2023-10-19T02:41:04;15.60;;;13.80;;
8462;SDS011;4268;52.506;13.462;2023-10-19T02:43:29;15.20;;;13.60;;
8462;SDS011;4268;52.506;13.462;2023-10-19T02:45:57;16.40;;;14.13;;
8462;SDS011;4268;52.506;13.462;2023-10-19T02:48:28;15.63;;;14.03;;
8462;SDS011;4268;52.506;13.462;2023-10-19T02:50:54;16.17;;;14.57;;
8462;SDS011;4268;52.506;13.462;2023-10-19T02:53:19;14.10;;;12.70;;
8462;SDS011;4268;52.506;13.462;2023-10-19T02:55:45;15.83;;;13.50;;
8462;SDS011;4268;52.506;13.462;2023-10-19T02:58:10;15.07;;;13.47;;
8462;SDS011;4268;52.506;13.462;2023-10-19T03:00:37;15.63;;;14.13;;
8462;SDS011;4268;52.506;13.462;2023-10-19T03:03:05;15.23;;;13.63;;
8462;SDS011;4268;52.506;13.462;2023-10-19T03:05:31;16.37;;;14.77;;
8462;SDS011;4268;52.506;13.462;2023-10-19T03:07:59;15.53;;;13.93;;
8462;SDS011;4268;52.506;13.462;2023-10-19T03:10:30;17.37;;;14.80;;
8462;SDS011;4268;52.506;13.462;2023-10-19T03:13:06;17.20;;;13.67;;
8462;SDS011;4268;52.506;13.462;2023-10-19T03:15:35;15.57;;;13.97;;
8462;SDS011;4268;52.506;13.462;2023-10-19T03:18:01;16.40;;;14.70;;
8462;SDS011;4268;52.506;13.462;2023-10-19T03:20:29;16.60;;;14.90;;
8462;SDS011;4268;52.506;13.462;2023-10-19T03:22:58;16.20;;;14.50;;
8462;SDS011;4268;52.506;13.462;2023-10-19T03:25:26;15.23;;;13.83;;
8462;SDS011;4268;52.506;13.462;2023-10-19T03:28:10;17.03;;;15.33;;
8462;SDS011;4268;52.506;13.462;2023-10-19T03:30:36;16.27;;;14.73;;
8462;SDS011;4268;52.506;13.462;2023-10-19T03:33:05;16.27;;;14.67;;
8462;SDS011;4268;52.506;13.462;2023-10-19T03:35:36;16.20;;;14.60;;
8462;SDS011;4268;52.506;13.462;2023-10-19T03:38:03;16.37;;;14.67;;
8462;SDS011;4268;52.506;13.462;2023-10-19T03:40:33;16.30;;;14.60;;
8462;SDS011;4268;52.506;13.462;2023-10-19T03:43:03;16.20;;;14.57;;
8462;SDS011;4268;52.506;13.462;2023-10-19T03:45:39;16.13;;;14.53;;
8462;SDS011;4268;52.506;13.462;2023-10-19T03:48:09;16.97;;;14.50;;
8462;SDS011;4268;52.506;13.462;2023-10-19T03:50:35;16.90;;;15.20;;
8462;SDS011;4268;52.506;13.462;2023-10-19T03:53:01;17.40;;;15.13;;
8462;SDS011;4268;52.506;13.462;2023-10-19T03:55:29;17.23;;;14.40;;
8462;SDS011;4268;52.506;13.462;2023-10-19T03:57:55;16.80;;;13.70;;
8462;SDS011;4268;52.506;13.462;2023-10-19T04:00:21;16.27;;;14.67;;
8462;SDS011;4268;52.506;13.462;2023-10-19T04:02:52;17.47;;;15.67;;
8462;SDS011;4268;52.506;13.462;2023-10-19T04:05:23;16.53;;;14.73;;
8462;SDS011;4268;52.506;13.462;2023-10-19T04:07:50;16.67;;;14.97;;
8462;SDS011;4268;52.506;13.462;2023-10-19T04:10:22;16.70;;;15.00;;
8462;SDS011;4268;52.506;13.462;2023-10-19T04:13:00;17.33;;;15.43;;
8462;SDS011;4268;52.506;13.462;2023-10-19T04:15:26;18.73;;;15.27;;
8462;SDS011;4268;52.506;13.462;2023-10-19T04:17:54;17.10;;;15.30;;
8462;SDS011;4268;52.506;13.462;2023-10-19T04:20:23;16.80;;;15.17;;
8462;SDS011;4268;52.506;13.462;2023-10-19T04:22:55;17.53;;;15.73;;
8462;SDS011;4268;52.506;13.462;2023-10-19T04:25:31;17.97;;;16.23;;
8462;SDS011;4268;52.506;13.462;2023-10-19T04:27:57;17.47;;;15.27;;
8462;SDS011;4268;52.506;13.462;2023-10-19T04:30:22;16.93;;;15.23;;
8462;SDS011;4268;52.506;13.462;2023-10-19T04:32:48;16.50;;;14.90;;
8462;SDS011;4268;52.506;13.462;2023-10-19T04:35:15;17.87;;;16.07;;
8462;SDS011;4268;52.506;13.462;2023-10-19T04:37:48;19.87;;;15.67;;
8462;SDS011;4268;52.506;13.462;2023-10-19T04:40:20;17.20;;;15.40;;
8462;SDS011;4268;52.506;13.462;2023-10-19T04:42:50;17.80;;;15.90;;
8462;SDS011;4268;52.506;13.462;2023-10-19T04:45:17;19.50;;;17.50;;
8462;SDS011;4268;52.506;13.462;2023-10-19T04:47:42;17.50;;;15.80;;
8462;SDS011;4268;52.506;13.462;2023-10-19T04:50:08;17.50;;;15.67;;
8462;SDS011;4268;52.506;13.462;2023-10-19T04:52:37;18.20;;;16.43;;
8462;SDS011;4268;52.506;13.462;2023-10-19T04:55:04;18.00;;;16.20;;
8462;SDS011;4268;52.506;13.462;2023-10-19T04:57:30;19.43;;;17.53;;
8462;SDS011;4268;52.506;13.462;2023-10-19T04:59:56;17.57;;;15.87;;
8462;SDS011;4268;52.506;13.462;2023-10-19T05:02:22;19.67;;;16.83;;
8462;SDS011;4268;52.506;13.462;2023-10-19T05:04:48;19.50;;;17.43;;
8462;SDS011;4268;52.506;13.462;2023-10-19T05:07:14;18.50;;;16.60;;
8462;SDS011;4268;52.506;13.462;2023-10-19T05:09:42;18.03;;;16.23;;
8462;SDS011;4268;52.506;13.462;2023-10-19T05:12:11;19.17;;;17.27;;
8462;SDS011;4268;52.506;13.462;2023-10-19T05:14:39;20.67;;;17.80;;
8462;SDS011;4268;52.506;13.462;2023-10-19T05:17:06;19.63;;;17.50;;
8462;SDS011;4268;52.506;13.462;2023-10-19T05:19:34;19.10;;;17.13;;
8462;SDS011;4268;52.506;13.462;2023-10-19T05:22:00;20.13;;;18.03;;
8462;SDS011;4268;52.506;13.462;2023-10-19T05:24:27;19.33;;;17.47;;
8462;SDS011;4268;52.506;13.462;2023-10-19T05:26:53;20.20;;;18.10;;
8462;SDS011;4268;52.506;13.462;2023-10-19T05:29:20;20.10;;;18.00;;
8462;SDS011;4268;52.506;13.462;2023-10-19T05:31:46;20.57;;;18.50;;
8462;SDS011;4268;52.506;13.462;2023-10-19T05:34:12;22.23;;;20.03;;
8462;SDS011;4268;52.506;13.462;2023-10-19T05:36:37;20.70;;;18.60;;
8462;SDS011;4268;52.506;13.462;2023-10-19T05:39:04;22.17;;;19.97;;
8462;SDS011;4268;52.506;13.462;2023-10-19T05:41:32;22.97;;;20.57;;
8462;SDS011;4268;52.506;13.462;2023-10-19T05:43:59;21.63;;;19.60;;
8462;SDS011;4268;52.506;13.462;2023-10-19T05:46:24;24.30;;;22.00;;
8462;SDS011;4268;52.506;13.462;2023-10-19T05:48:50;23.27;;;20.83;;
8462;SDS011;4268;52.506;13.462;2023-10-19T05:51:17;23.00;;;20.77;;
8462;SDS011;4268;52.506;13.462;2023-10-19T05:53:43;23.17;;;20.87;;
8462;SDS011;4268;52.506;13.462;2023-10-19T05:56:09;21.80;;;19.80;;
8462;SDS011;4268;52.506;13.462;2023-10-19T05:58:36;22.87;;;20.77;;
8462;SDS011;4268;52.506;13.462;2023-10-19T06:01:01;23.23;;;21.00;;
8462;SDS011;4268;52.506;13.462;2023-10-19T06:03:27;23.70;;;21.40;;
8462;SDS011;4268;52.506;13.462;2023-10-19T06:05:53;24.03;;;21.63;;
8462;SDS011;4268;52.506;13.462;2023-10-19T06:08:21;23.27;;;21.07;;
8462;SDS011;4268;52.506;13.462;2023-10-19T06:10:50;24.60;;;22.40;;
8462;SDS011;4268;52.506;13.462;2023-10-19T06:13:17;25.03;;;22.53;;
8462;SDS011;4268;52.506;13.462;2023-10-19T06:15:42;25.20;;;23.00;;
8462;SDS011;4268;52.506;13.462;2023-10-19T06:18:08;25.67;;;23.30;;
8462;SDS011;4268;52.506;13.462;2023-10-19T06:20:34;25.87;;;23.37;;
8462;SDS011;4268;52.506;13.462;2023-10-19T06:22:59;26.73;;;24.33;;
8462;SDS011;4268;52.506;13.462;2023-10-19T06:25:29;27.47;;;24.93;;
8462;SDS011;4268;52.506;13.462;2023-10-19T06:27:55;28.80;;;26.27;;
8462;SDS011;4268;52.506;13.462;2023-10-19T06:30:22;27.47;;;24.97;;
8462;SDS011;4268;52.506;13.462;2023-10-19T06:32:49;28.43;;;25.90;;
8462;SDS011;4268;52.506;13.462;2023-10-19T06:35:16;29.13;;;26.73;;
8462;SDS011;4268;52.506;13.462;2023-10-19T06:37:43;32.53;;;29.73;;
8462;SDS011;4268;52.506;13.462;2023-10-19T06:40:09;34.47;;;31.50;;
8462;SDS011;4268;52.506;13.462;2023-10-19T06:42:39;32.90;;;30.23;;
8462;SDS011;4268;52.506;13.462;2023-10-19T06:45:10;28.57;;;26.17;;
8462;SDS011;4268;52.506;13.462;2023-10-19T06:47:42;30.13;;;27.53;;
8462;SDS011;4268;52.506;13.462;2023-10-19T06:50:10;33.43;;;30.63;;
8462;SDS011;4268;52.506;13.462;2023-10-19T06:52:40;31.67;;;29.10;;
8462;SDS011;4268;52.506;13.462;2023-10-19T06:55:06;31.67;;;28.97;;
8462;SDS011;4268;52.506;13.462;2023-10-19T06:57:38;31.90;;;29.20;;
8462;SDS011;4268;52.506;13.462;2023-10-19T07:00:13;30.53;;;27.83;;
8462;SDS011;4268;52.506;13.462;2023-10-19T07:02:46;30.23;;;27.63;;
8462;SDS011;4268;52.506;13.462;2023-10-19T07:05:15;29.13;;;26.70;;
8462;SDS011;4268;52.506;13.462;2023-10-19T07:07:47;31.40;;;28.57;;
8462;SDS011;4268;52.506;13.462;2023-10-19T07:10:13;30.47;;;27.93;;
8462;SDS011;4268;52.506;13.462;2023-10-19T07:12:40;32.80;;;30.10;;
8462;SDS011;4268;52.506;13.462;2023-10-19T07:15:08;31.27;;;28.47;;
8462;SDS011;4268;52.506;13.462;2023-10-19T07:17:38;29.07;;;26.57;;
8462;SDS011;4268;52.506;13.462;2023-10-19T07:20:08;31.63;;;29.07;;
8462;SDS011;4268;52.506;13.462;2023-10-19T07:22:47;30.20;;;27.60;;
8462;SDS011;4268;52.506;13.462;2023-10-19T07:25:13;31.00;;;28.30;;
8462;SDS011;4268;52.506;13.462;2023-10-19T07:27:38;29.47;;;27.07;;
8462;SDS011;4268;52.506;13.462;2023-10-19T07:30:07;29.53;;;27.17;;
8462;SDS011;4268;52.506;13.462;2023-10-19T07:32:34;32.10;;;29.30;;
8462;SDS011;4268;52.506;13.462;2023-10-19T07:35:00;31.40;;;28.90;;
8462;SDS011;4268;52.506;13.462;2023-10-19T07:37:25;29.40;;;26.97;;
8462;SDS011;4268;52.506;13.462;2023-10-19T07:39:52;30.17;;;27.67;;
8462;SDS011;4268;52.506;13.462;2023-10-19T07:42:21;26.80;;;24.60;;
8462;SDS011;4268;52.506;13.462;2023-10-19T07:44:47;24.57;;;22.50;;
8462;SDS011;4268;52.506;13.462;2023-10-19T07:47:14;24.60;;;22.50;;
8462;SDS011;4268;52.506;13.462;2023-10-19T07:49:39;23.00;;;20.90;;
8462;SDS011;4268;52.506;13.462;2023-10-19T07:52:05;22.57;;;20.37;;
8462;SDS011;4268;52.506;13.462;2023-10-19T07:54:36;21.87;;;19.87;;
8462;SDS011;4268;52.506;13.462;2023-10-19T07:57:02;21.40;;;19.37;;
8462;SDS011;4268;52.506;13.462;2023-10-19T07:59:34;21.67;;;19.53;;
8462;SDS011;4268;52.506;13.462;2023-10-19T08:02:00;23.60;;;21.23;;
8462;SDS011;4268;52.506;13.462;2023-10-19T08:04:29;21.63;;;19.70;;
8462;SDS011;4268;52.506;13.462;2023-10-19T08:06:55;21.93;;;19.93;;
8462;SDS011;4268;52.506;13.462;2023-10-19T08:09:24;22.57;;;20.47;;
8462;SDS011;4268;52.506;13.462;2023-10-19T08:11:51;21.43;;;19.43;;
8462;SDS011;4268;52.506;13.462;2023-10-19T08:14:27;21.73;;;19.73;;
8462;SDS011;4268;52.506;13.462;2023-10-19T08:16:53;20.73;;;18.93;;
8462;SDS011;4268;52.506;13.462;2023-10-19T08:19:19;19.80;;;18.00;;
8462;SDS011;4268;52.506;13.462;2023-10-19T08:21:45;20.03;;;18.07;;
8462;SDS011;4268;52.506;13.462;2023-10-19T08:24:10;19.30;;;17.50;;
8462;SDS011;4268;52.506;13.462;2023-10-19T08:26:42;19.70;;;17.63;;
8462;SDS011;4268;52.506;13.462;2023-10-19T08:29:08;21.17;;;19.03;;
8462;SDS011;4268;52.506;13.462;2023-10-19T08:31:40;20.17;;;18.37;;
8462;SDS011;4268;52.506;13.462;2023-10-19T08:34:10;19.50;;;17.60;;
8462;SDS011;4268;52.506;13.462;2023-10-19T08:36:36;18.83;;;16.93;;
8462;SDS011;4268;52.506;13.462;2023-10-19T08:39:04;19.50;;;17.43;;
8462;SDS011;4268;52.506;13.462;2023-10-19T08:41:34;19.27;;;17.10;;
8462;SDS011;4268;52.506;13.462;2023-10-19T08:44:03;17.30;;;15.50;;
8462;SDS011;4268;52.506;13.462;2023-10-19T08:46:35;17.57;;;15.97;;
8462;SDS011;4268;52.506;13.462;2023-10-19T08:49:05;17.77;;;15.97;;
8462;SDS011;4268;52.506;13.462;2023-10-19T08:51:34;18.30;;;16.40;;
8462;SDS011;4268;52.506;13.462;2023-10-19T08:54:03;18.40;;;16.07;;
8462;SDS011;4268;52.506;13.462;2023-10-19T08:56:31;16.07;;;14.53;;
8462;SDS011;4268;52.506;13.462;2023-10-19T08:58:58;16.40;;;14.90;;
8462;SDS011;4268;52.506;13.462;2023-10-19T09:01:25;19.67;;;17.97;;
8462;SDS011;4268;52.506;13.462;2023-10-19T09:03:53;16.83;;;15.23;;
8462;SDS011;4268;52.506;13.462;2023-10-19T09:06:20;17.73;;;15.93;;
8462;SDS011;4268;52.506;13.462;2023-10-19T09:08:46;16.87;;;15.23;;
8462;SDS011;4268;52.506;13.462;2023-10-19T09:11:13;16.90;;;15.40;;
8462;SDS011;4268;52.506;13.462;2023-10-19T09:13:45;17.03;;;15.33;;
8462;SDS011;4268;52.506;13.462;2023-10-19T09:16:19;17.10;;;15.30;;
8462;SDS011;4268;52.506;13.462;2023-10-19T09:18:46;17.30;;;15.60;;
8462;SDS011;4268;52.506;13.462;2023-10-19T09:21:14;16.57;;;14.97;;
8462;SDS011;4268;52.506;13.462;2023-10-19T09:23:54;18.27;;;15.67;;
8462;SDS011;4268;52.506;13.462;2023-10-19T09:26:22;17.37;;;15.67;;
8462;SDS011;4268;52.506;13.462;2023-10-19T09:28:49;17.63;;;15.67;;
8462;SDS011;4268;52.506;13.462;2023-10-19T09:31:15;17.73;;;15.93;;
8462;SDS011;4268;52.506;13.462;2023-10-19T09:33:45;16.97;;;15.20;;
8462;SDS011;4268;52.506;13.462;2023-10-19T09:36:12;17.30;;;15.50;;
8462;SDS011;4268;52.506;13.462;2023-10-19T09:38:48;17.10;;;15.50;;
8462;SDS011;4268;52.506;13.462;2023-10-19T09:41:18;17.80;;;16.10;;
8462;SDS011;4268;52.506;13.462;2023-10-19T09:43:48;17.80;;;16.13;;
8462;SDS011;4268;52.506;13.462;2023-10-19T09:48:51;24.03;;;21.93;;
8462;SDS011;4268;52.506;13.462;2023-10-19T09:51:17;17.23;;;15.47;;
8462;SDS011;4268;52.506;13.462;2023-10-19T09:53:47;17.60;;;15.80;;
8462;SDS011;4268;52.506;13.462;2023-10-19T09:56:20;18.03;;;16.23;;
8462;SDS011;4268;52.506;13.462;2023-10-19T09:58:51;17.30;;;15.50;;
8462;SDS011;4268;52.506;13.462;2023-10-19T10:01:20;21.20;;;15.33;;
8462;SDS011;4268;52.506;13.462;2023-10-19T10:03:49;17.30;;;15.50;;
8462;SDS011;4268;52.506;13.462;2023-10-19T10:06:29;18.50;;;16.53;;
8462;SDS011;4268;52.506;13.462;2023-10-19T10:08:56;17.10;;;15.40;;
8462;SDS011;4268;52.506;13.462;2023-10-19T10:11:28;16.30;;;14.73;;
8462;SDS011;4268;52.506;13.462;2023-10-19T10:13:54;17.47;;;15.97;;
8462;SDS011;4268;52.506;13.462;2023-10-19T10:16:25;16.97;;;15.27;;
8462;SDS011;4268;52.506;13.462;2023-10-19T10:18:56;18.03;;;15.13;;
8462;SDS011;4268;52.506;13.462;2023-10-19T10:21:26;17.63;;;16.00;;
8462;SDS011;4268;52.506;13.462;2023-10-19T10:23:54;17.90;;;16.10;;
8462;SDS011;4268;52.506;13.462;2023-10-19T10:26:23;19.93;;;18.07;;
8462;SDS011;4268;52.506;13.462;2023-10-19T10:31:35;18.33;;;16.53;;
8462;SDS011;4268;52.506;13.462;2023-10-19T10:34:06;18.13;;;16.20;;
8462;SDS011;4268;52.506;13.462;2023-10-19T10:36:56;23.47;;;21.40;;
8462;SDS011;4268;52.506;13.462;2023-10-19T10:39:23;19.97;;;18.10;;
8462;SDS011;4268;52.506;13.462;2023-10-19T10:41:57;22.33;;;20.33;;
8462;SDS011;4268;52.506;13.462;2023-10-19T10:47:08;27.00;;;24.83;;
8462;SDS011;4268;52.506;13.462;2023-10-19T10:52:22;32.87;;;30.33;;
8462;SDS011;4268;52.506;13.462;2023-10-19T10:54:49;31.97;;;29.37;;
8462;SDS011;4268;52.506;13.462;2023-10-19T10:57:14;30.27;;;27.73;;
8462;SDS011;4268;52.506;13.462;2023-10-19T10:59:41;32.43;;;29.93;;
8462;SDS011;4268;52.506;13.462;2023-10-19T11:02:19;32.87;;;30.20;;
8462;SDS011;4268;52.506;13.462;2023-10-19T11:04:46;28.50;;;26.10;;
8462;SDS011;4268;52.506;13.462;2023-10-19T11:07:18;27.33;;;25.03;;
8462;SDS011;4268;52.506;13.462;2023-10-19T11:09:48;27.20;;;24.80;;
8462;SDS011;4268;52.506;13.462;2023-10-19T11:12:14;29.93;;;27.17;;
8462;SDS011;4268;52.506;13.462;2023-10-19T11:14:57;31.80;;;29.17;;
8462;SDS011;4268;52.506;13.462;2023-10-19T11:17:41;30.53;;;28.17;;
8462;SDS011;4268;52.506;13.462;2023-10-19T11:20:07;33.83;;;31.03;;
8462;SDS011;4268;52.506;13.462;2023-10-19T11:22:44;32.23;;;29.73;;
8462;SDS011;4268;52.506;13.462;2023-10-19T11:25:17;33.07;;;30.50;;
8462;SDS011;4268;52.506;13.462;2023-10-19T11:27:46;33.93;;;31.23;;
8462;SDS011;4268;52.506;13.462;2023-10-19T11:30:13;33.53;;;31.03;;
8462;SDS011;4268;52.506;13.462;2023-10-19T11:32:39;36.03;;;33.23;;
8462;SDS011;4268;52.506;13.462;2023-10-19T11:35:05;35.80;;;33.00;;
8462;SDS011;4268;52.506;13.462;2023-10-19T11:37:45;36.00;;;33.20;;
8462;SDS011;4268;52.506;13.462;2023-10-19T11:40:17;35.73;;;32.53;;
8462;SDS011;4268;52.506;13.462;2023-10-19T11:42:47;33.27;;;30.30;;
8462;SDS011;4268;52.506;13.462;2023-10-19T11:45:13;33.17;;;30.37;;
8462;SDS011;4268;52.506;13.462;2023-10-19T11:47:39;35.03;;;32.17;;
8462;SDS011;4268;52.506;13.462;2023-10-19T11:50:06;34.10;;;31.13;;
8462;SDS011;4268;52.506;13.462;2023-10-19T11:52:32;35.70;;;32.40;;
8462;SDS011;4268;52.506;13.462;2023-10-19T11:54:58;36.40;;;33.17;;
8462;SDS011;4268;52.506;13.462;2023-10-19T11:57:24;36.27;;;33.53;;
8462;SDS011;4268;52.506;13.462;2023-10-19T11:59:59;34.30;;;31.60;;
8462;SDS011;4268;52.506;13.462;2023-10-19T12:02:24;37.73;;;34.37;;
8462;SDS011;4268;52.506;13.462;2023-10-19T12:04:51;38.27;;;34.93;;
8462;SDS011;4268;52.506;13.462;2023-10-19T12:07:17;34.10;;;30.93;;
8462;SDS011;4268;52.506;13.462;2023-10-19T12:09:43;32.10;;;29.50;;
8462;SDS011;4268;52.506;13.462;2023-10-19T12:12:09;34.03;;;31.00;;
8462;SDS011;4268;52.506;13.462;2023-10-19T12:14:36;35.00;;;31.63;;
8462;SDS011;4268;52.506;13.462;2023-10-19T12:17:02;34.27;;;31.27;;
8462;SDS011;4268;52.506;13.462;2023-10-19T12:19:29;36.30;;;33.30;;
8462;SDS011;4268;52.506;13.462;2023-10-19T12:21:55;35.60;;;32.63;;
8462;SDS011;4268;52.506;13.462;2023-10-19T12:24:21;33.70;;;30.90;;
8462;SDS011;4268;52.506;13.462;2023-10-19T12:26:48;33.90;;;31.20;;
8462;SDS011;4268;52.506;13.462;2023-10-19T12:29:13;34.57;;;31.77;;
8462;SDS011;4268;52.506;13.462;2023-10-19T12:31:42;34.77;;;31.73;;
8462;SDS011;4268;52.506;13.462;2023-10-19T12:34:07;33.23;;;30.63;;
8462;SDS011;4268;52.506;13.462;2023-10-19T12:36:36;34.30;;;31.43;;
8462;SDS011;4268;52.506;13.462;2023-10-19T12:39:02;34.70;;;31.97;;
8462;SDS011;4268;52.506;13.462;2023-10-19T12:41:31;32.93;;;30.07;;
8462;SDS011;4268;52.506;13.462;2023-10-19T12:43:56;33.67;;;30.77;;
8462;SDS011;4268;52.506;13.462;2023-10-19T12:46:23;32.83;;;30.13;;
8462;SDS011;4268;52.506;13.462;2023-10-19T12:48:50;33.07;;;30.37;;
8462;SDS011;4268;52.506;13.462;2023-10-19T12:51:16;34.07;;;31.27;;
8462;SDS011;4268;52.506;13.462;2023-10-19T12:53:48;33.63;;;30.80;;
8462;SDS011;4268;52.506;13.462;2023-10-19T12:56:13;33.30;;;30.70;;
8462;SDS011;4268;52.506;13.462;2023-10-19T12:58:39;33.30;;;30.53;;
8462;SDS011;4268;52.506;13.462;2023-10-19T13:01:06;34.27;;;31.27;;
8462;SDS011;4268;52.506;13.462;2023-10-19T13:03:31;33.53;;;30.73;;
8462;SDS011;4268;52.506;13.462;2023-10-19T13:05:57;35.47;;;32.37;;
8462;SDS011;4268;52.506;13.462;2023-10-19T13:08:23;34.33;;;31.47;;
8462;SDS011;4268;52.506;13.462;2023-10-19T13:10:52;33.63;;;30.70;;
8462;SDS011;4268;52.506;13.462;2023-10-19T13:13:18;33.07;;;30.37;;
8462;SDS011;4268;52.506;13.462;2023-10-19T13:15:47;35.43;;;32.57;;
8462;SDS011;4268;52.506;13.462;2023-10-19T13:18:13;34.77;;;31.83;;
8462;SDS011;4268;52.506;13.462;2023-10-19T13:20:45;35.37;;;32.27;;
8462;SDS011;4268;52.506;13.462;2023-10-19T13:23:11;36.40;;;33.20;;
8462;SDS011;4268;52.506;13.462;2023-10-19T13:25:37;36.10;;;33.20;;
8462;SDS011;4268;52.506;13.462;2023-10-19T13:28:10;36.73;;;33.70;;
8462;SDS011;4268;52.506;13.462;2023-10-19T13:30:41;38.90;;;35.50;;
8462;SDS011;4268;52.506;13.462;2023-10-19T13:33:08;35.73;;;32.73;;
8462;SDS011;4268;52.506;13.462;2023-10-19T13:35:37;36.37;;;33.37;;
8462;SDS011;4268;52.506;13.462;2023-10-19T13:38:04;35.80;;;32.63;;
8462;SDS011;4268;52.506;13.462;2023-10-19T13:40:30;36.17;;;32.97;;
8462;SDS011;4268;52.506;13.462;2023-10-19T13:42:57;34.00;;;31.00;;
8462;SDS011;4268;52.506;13.462;2023-10-19T13:45:23;35.70;;;32.53;;
8462;SDS011;4268;52.506;13.462;2023-10-19T13:47:49;34.97;;;31.97;;
8462;SDS011;4268;52.506;13.462;2023-10-19T13:50:16;35.83;;;32.63;;
8462;SDS011;4268;52.506;13.462;2023-10-19T13:52:43;35.23;;;32.07;;
8462;SDS011;4268;52.506;13.462;2023-10-19T13:55:09;36.43;;;33.20;;
8462;SDS011;4268;52.506;13.462;2023-10-19T13:57:37;33.97;;;30.77;;
8462;SDS011;4268;52.506;13.462;2023-10-19T14:00:03;34.90;;;31.80;;
8462;SDS011;4268;52.506;13.462;2023-10-19T14:02:33;34.63;;;31.33;;
8462;SDS011;4268;52.506;13.462;2023-10-19T14:04:58;38.43;;;35.07;;
8462;SDS011;4268;52.506;13.462;2023-10-19T14:07:25;34.07;;;31.03;;
8462;SDS011;4268;52.506;13.462;2023-10-19T14:09:51;35.27;;;32.17;;
8462;SDS011;4268;52.506;13.462;2023-10-19T14:12:17;34.07;;;31.10;;
8462;SDS011;4268;52.506;13.462;2023-10-19T14:14:43;34.60;;;31.60;;
8462;SDS011;4268;52.506;13.462;2023-10-19T14:17:08;35.23;;;32.27;;
8462;SDS011;4268;52.506;13.462;2023-10-19T14:19:34;37.83;;;34.67;;
8462;SDS011;4268;52.506;13.462;2023-10-19T14:21:59;35.87;;;32.67;;
8462;SDS011;4268;52.506;13.462;2023-10-19T14:24:25;33.40;;;30.50;;
8462;SDS011;4268;52.506;13.462;2023-10-19T14:26:51;34.47;;;31.57;;
8462;SDS011;4268;52.506;13.462;2023-10-19T14:29:19;36.43;;;33.30;;
8462;SDS011;4268;52.506;13.462;2023-10-19T14:31:44;36.73;;;33.43;;
8462;SDS011;4268;52.506;13.462;2023-10-19T14:34:10;36.00;;;32.90;;
8462;SDS011;4268;52.506;13.462;2023-10-19T14:36:35;38.33;;;35.03;;
8462;SDS011;4268;52.506;13.462;2023-10-19T14:39:01;35.40;;;32.30;;
8462;SDS011;4268;52.506;13.462;2023-10-19T14:41:27;36.67;;;33.37;;
8462;SDS011;4268;52.506;13.462;2023-10-19T14:43:52;37.27;;;34.07;;
8462;SDS011;4268;52.506;13.462;2023-10-19T14:46:18;37.40;;;34.20;;
8462;SDS011;4268;52.506;13.462;2023-10-19T14:48:43;38.40;;;35.07;;
8462;SDS011;4268;52.506;13.462;2023-10-19T14:51:10;38.47;;;34.93;;
8462;SDS011;4268;52.506;13.462;2023-10-19T14:53:36;38.30;;;35.00;;
8462;SDS011;4268;52.506;13.462;2023-10-19T14:56:02;36.63;;;33.43;;
8462;SDS011;4268;52.506;13.462;2023-10-19T14:58:29;41.20;;;37.70;;